SVRX weather

Hacienda Río Yaza Airport
Zulia, Venezuela

Public forecast

Using degrees Celsius for public forecast. Weather courtesy of forecast.io.

METAR (pilot weather report)

Closest report is Alfonso López Pumarejo Airport, 54.6 nm (101.2 km) NW. Retrieved 2019/05/26 14:00 UTC (26 minutes ago):

SKVP 261400Z 08005KT 9999 FEW020 30/23 A2992

TAF (pilot weather forecast)

Forecast is more than 12 hours old.

Closest forecast is La Chinita International Airport, 64.7 nm (119.8 km) NE. Retrieved 2019/05/25 18:05 UTC (20 hours ago):

TAF SVMC 251600Z 2518/2618 09006KT 9999 SCT013 TX35/19Z TN25/07Z TEMPO 2518/2522 VRB08KT 8000 DZ OBKN013